createdAt,value
2018-03-16T00:01:31.236Z,8.30
2018-03-16T00:03:59.545Z,8.30
2018-03-16T00:06:27.882Z,8.20
2018-03-16T00:08:56.180Z,8.20
2018-03-16T00:11:25.116Z,8.20
2018-03-16T00:13:53.412Z,8.20
2018-03-16T00:16:21.745Z,8.20
2018-03-16T00:18:50.036Z,8.20
2018-03-16T00:21:18.365Z,8.20
2018-03-16T00:23:46.688Z,8.20
2018-03-16T00:26:15.013Z,8.20
2018-03-16T00:28:43.318Z,8.20
2018-03-16T00:31:11.665Z,8.10
2018-03-16T00:33:39.958Z,8.10
2018-03-16T00:36:08.258Z,8.10
2018-03-16T00:38:36.602Z,8.10
2018-03-16T00:41:04.900Z,8.10
2018-03-16T00:43:33.202Z,8.10
2018-03-16T00:46:01.538Z,8.10
2018-03-16T00:48:29.837Z,8.10
2018-03-16T00:50:58.174Z,8.10
2018-03-16T00:53:26.649Z,8.10
2018-03-16T00:55:55.935Z,8.20
2018-03-16T00:58:25.315Z,8.10
2018-03-16T01:00:53.651Z,8.20
2018-03-16T01:03:21.975Z,8.10
2018-03-16T01:05:50.273Z,8.10
2018-03-16T01:08:18.630Z,8.00
2018-03-16T01:10:46.921Z,8.00
2018-03-16T01:13:15.231Z,8.00
2018-03-16T01:15:43.570Z,8.10
2018-03-16T01:18:11.917Z,8.10
2018-03-16T01:20:45.761Z,8.10
2018-03-16T01:23:14.106Z,8.10
2018-03-16T01:25:42.428Z,8.20
2018-03-16T01:28:10.732Z,8.20
2018-03-16T01:30:39.072Z,8.20
2018-03-16T01:33:07.364Z,8.20
2018-03-16T01:35:35.673Z,8.20
2018-03-16T01:38:04.000Z,8.20
2018-03-16T01:40:32.297Z,8.20
2018-03-16T01:43:00.620Z,8.30
2018-03-16T01:45:28.908Z,8.20
2018-03-16T01:47:57.232Z,8.20
2018-03-16T01:50:26.426Z,8.20
2018-03-16T01:53:20.506Z,8.20
2018-03-16T01:55:48.808Z,8.20
2018-03-16T01:58:17.132Z,8.20
2018-03-16T02:00:45.460Z,8.20
2018-03-16T02:03:12.984Z,8.20
2018-03-16T02:05:41.326Z,8.20
2018-03-16T02:08:09.639Z,8.20
2018-03-16T02:10:37.973Z,8.20
2018-03-16T02:13:06.277Z,8.20
2018-03-16T02:15:34.933Z,8.20
2018-03-16T02:18:03.252Z,8.30
2018-03-16T02:20:31.549Z,8.30
2018-03-16T02:22:59.892Z,8.20
2018-03-16T02:25:27.451Z,8.20
2018-03-16T02:27:56.850Z,8.20
2018-03-16T02:30:25.177Z,8.20
2018-03-16T02:32:53.476Z,8.10
2018-03-16T02:35:21.802Z,8.20
2018-03-16T02:37:50.113Z,8.20
2018-03-16T02:40:18.450Z,8.20
2018-03-16T02:42:46.767Z,8.20
2018-03-16T02:45:15.104Z,8.20
2018-03-16T02:47:43.409Z,8.20
2018-03-16T02:50:11.756Z,8.20
2018-03-16T02:52:40.064Z,8.10
2018-03-16T02:55:07.592Z,8.10
2018-03-16T02:57:35.934Z,8.10
2018-03-16T03:00:04.269Z,8.10
2018-03-16T03:02:32.592Z,8.10
2018-03-16T03:05:00.925Z,8.10
2018-03-16T03:07:29.258Z,8.10
2018-03-16T03:09:57.587Z,8.10
2018-03-16T03:12:32.512Z,8.00
2018-03-16T03:15:00.821Z,8.10
2018-03-16T03:17:29.144Z,8.10
2018-03-16T03:19:57.437Z,8.10
2018-03-16T03:22:27.041Z,8.00
2018-03-16T03:24:56.720Z,8.10
2018-03-16T03:27:25.032Z,8.10
2018-03-16T03:29:53.368Z,8.10
2018-03-16T03:32:21.667Z,8.00
2018-03-16T03:34:49.999Z,8.00
2018-03-16T03:37:18.313Z,8.00
2018-03-16T03:39:46.641Z,8.00
2018-03-16T03:42:14.941Z,8.00
2018-03-16T03:44:43.273Z,8.00
2018-03-16T03:47:11.589Z,8.00
2018-03-16T03:49:39.901Z,8.00
2018-03-16T03:52:08.227Z,8.00
2018-03-16T03:54:36.526Z,8.00
2018-03-16T03:57:04.836Z,8.00
2018-03-16T03:59:33.186Z,8.00
2018-03-16T04:02:01.488Z,8.00
2018-03-16T04:04:29.834Z,7.90
2018-03-16T04:06:58.132Z,7.90
2018-03-16T04:09:26.424Z,8.00
2018-03-16T04:11:55.667Z,8.00
2018-03-16T04:14:25.084Z,7.90
2018-03-16T04:16:53.376Z,7.90
2018-03-16T04:19:21.713Z,7.90
2018-03-16T04:21:50.008Z,7.90
2018-03-16T04:24:18.346Z,7.90
2018-03-16T04:26:46.639Z,7.90
2018-03-16T04:29:14.934Z,7.90
2018-03-16T04:31:43.260Z,7.90
2018-03-16T04:34:11.568Z,7.90
2018-03-16T04:36:39.901Z,7.80
2018-03-16T04:39:08.197Z,7.90
2018-03-16T04:41:36.534Z,7.90
2018-03-16T04:44:04.824Z,7.90
2018-03-16T04:46:33.130Z,7.90
2018-03-16T04:49:01.465Z,7.90
2018-03-16T04:51:29.792Z,7.90
2018-03-16T04:53:58.093Z,7.90
2018-03-16T04:56:26.429Z,7.90
2018-03-16T04:58:55.349Z,7.90
2018-03-16T05:01:23.648Z,7.90
2018-03-16T05:03:51.973Z,7.90
2018-03-16T05:06:20.264Z,7.90
2018-03-16T05:08:48.603Z,7.90
2018-03-16T05:11:16.895Z,7.90
2018-03-16T05:13:49.649Z,7.90
2018-03-16T05:16:17.986Z,7.90
2018-03-16T05:18:46.321Z,7.90
2018-03-16T05:21:14.617Z,7.90
2018-03-16T05:23:42.960Z,7.90
2018-03-16T05:26:11.261Z,7.90
2018-03-16T05:28:39.569Z,8.00
2018-03-16T05:31:07.892Z,8.00
2018-03-16T05:33:36.201Z,8.00
2018-03-16T05:36:04.542Z,8.00
2018-03-16T05:38:32.840Z,8.00
2018-03-16T05:41:01.161Z,8.00
2018-03-16T05:43:29.460Z,8.00
2018-03-16T05:45:57.802Z,8.00
2018-03-16T05:48:26.113Z,7.90
2018-03-16T05:50:55.468Z,7.90
2018-03-16T05:53:24.974Z,7.90
2018-03-16T05:55:53.378Z,7.90
2018-03-16T05:58:21.682Z,7.90
2018-03-16T06:00:49.294Z,7.90
2018-03-16T06:03:17.552Z,7.90
2018-03-16T06:05:45.901Z,7.80
2018-03-16T06:08:14.985Z,7.90
2018-03-16T06:10:43.279Z,7.90
2018-03-16T06:13:11.609Z,7.80
2018-03-16T06:15:39.933Z,7.90
2018-03-16T06:18:08.233Z,7.90
2018-03-16T06:20:36.577Z,7.90
2018-03-16T06:23:04.909Z,7.90
2018-03-16T06:25:33.240Z,7.90
2018-03-16T06:28:01.553Z,7.80
2018-03-16T06:30:29.877Z,7.90
2018-03-16T06:32:58.172Z,7.80
2018-03-16T06:35:26.502Z,7.80
2018-03-16T06:37:55.862Z,7.70
2018-03-16T06:40:24.205Z,7.80
2018-03-16T06:42:52.504Z,7.80
2018-03-16T06:45:20.829Z,7.80
2018-03-16T06:47:49.120Z,7.70
2018-03-16T06:50:17.462Z,7.70
2018-03-16T06:52:44.993Z,7.70
2018-03-16T06:55:13.337Z,7.70
2018-03-16T06:57:41.638Z,7.70
2018-03-16T07:00:09.965Z,7.70
2018-03-16T07:02:38.265Z,7.70
2018-03-16T07:05:06.592Z,7.70
2018-03-16T07:07:34.904Z,7.70
2018-03-16T07:10:03.220Z,7.70
2018-03-16T07:12:31.517Z,7.70
2018-03-16T07:15:12.818Z,7.70
2018-03-16T07:17:41.111Z,7.70
2018-03-16T07:20:09.445Z,7.70
2018-03-16T07:22:37.740Z,7.70
2018-03-16T07:25:09.576Z,7.70
2018-03-16T07:27:37.886Z,7.60
2018-03-16T07:30:06.205Z,7.60
2018-03-16T07:32:34.520Z,7.60
2018-03-16T07:35:02.825Z,7.70
2018-03-16T07:37:30.377Z,7.70
2018-03-16T07:39:58.709Z,7.70
2018-03-16T07:42:26.240Z,7.70
2018-03-16T07:44:55.077Z,7.70
2018-03-16T07:47:23.374Z,7.70
2018-03-16T07:49:51.703Z,7.70
2018-03-16T07:52:20.000Z,7.60
2018-03-16T07:54:49.296Z,7.60
2018-03-16T07:57:17.588Z,7.60
2018-03-16T07:59:45.912Z,7.60
2018-03-16T08:02:14.284Z,7.60
2018-03-16T08:04:42.613Z,7.60
2018-03-16T08:07:10.948Z,7.60
2018-03-16T08:09:39.250Z,7.70
2018-03-16T08:12:07.570Z,7.70
2018-03-16T08:14:35.877Z,7.80
2018-03-16T08:17:04.233Z,7.70
2018-03-16T08:19:32.533Z,7.50
2018-03-16T08:22:00.825Z,7.60
2018-03-16T08:24:29.135Z,7.60
2018-03-16T08:26:57.440Z,7.60
2018-03-16T08:29:26.881Z,7.50
2018-03-16T08:31:55.186Z,7.60
2018-03-16T08:34:23.484Z,7.50
2018-03-16T08:36:51.817Z,7.60
2018-03-16T08:39:20.149Z,7.70
2018-03-16T08:41:48.451Z,7.80
2018-03-16T08:44:16.805Z,7.70
2018-03-16T08:46:45.131Z,7.60
2018-03-16T08:49:13.459Z,7.60
2018-03-16T08:51:41.803Z,7.60
2018-03-16T08:54:10.130Z,7.50
2018-03-16T08:56:38.458Z,7.50
2018-03-16T08:59:06.794Z,7.50
2018-03-16T09:01:35.223Z,7.50
2018-03-16T09:04:03.523Z,7.50
2018-03-16T09:06:31.068Z,7.50
2018-03-16T09:08:59.388Z,7.40
2018-03-16T09:11:27.687Z,7.40
2018-03-16T09:13:55.812Z,7.40
2018-03-16T09:16:24.114Z,7.40
2018-03-16T09:18:52.455Z,7.50
2018-03-16T09:21:20.790Z,7.50
2018-03-16T09:23:49.128Z,7.60
2018-03-16T09:26:17.458Z,7.70
2018-03-16T09:28:45.761Z,7.60
2018-03-16T09:31:14.093Z,7.60
2018-03-16T09:33:42.414Z,7.60
2018-03-16T09:36:10.741Z,7.50
2018-03-16T09:38:39.069Z,7.50
2018-03-16T09:41:07.385Z,7.50
2018-03-16T09:43:35.725Z,7.40
2018-03-16T09:46:04.029Z,7.40
2018-03-16T09:48:32.361Z,7.40
2018-03-16T09:51:00.657Z,7.40
2018-03-16T09:53:30.909Z,7.40
2018-03-16T09:55:58.439Z,7.40
2018-03-16T09:58:26.765Z,7.30
2018-03-16T10:00:55.057Z,7.20
2018-03-16T10:03:22.617Z,7.20
2018-03-16T10:05:50.920Z,7.10
2018-03-16T10:08:19.256Z,7.10
2018-03-16T10:10:47.594Z,7.10
2018-03-16T10:13:15.884Z,7.20
2018-03-16T10:15:44.189Z,7.10
2018-03-16T10:18:12.479Z,7.10
2018-03-16T10:20:40.804Z,7.10
2018-03-16T10:23:09.109Z,7.00
2018-03-16T10:25:37.486Z,7.10
2018-03-16T10:28:05.769Z,7.10
2018-03-16T10:30:34.096Z,7.10
2018-03-16T10:33:02.387Z,7.00
2018-03-16T10:35:30.723Z,7.00
2018-03-16T10:37:59.021Z,7.00
2018-03-16T10:40:27.312Z,7.00
2018-03-16T10:42:56.485Z,7.10
2018-03-16T10:45:25.650Z,7.10
2018-03-16T10:47:55.106Z,7.20
2018-03-16T10:50:23.441Z,7.10
2018-03-16T10:52:51.737Z,7.00
2018-03-16T10:55:21.012Z,7.10
2018-03-16T10:57:49.321Z,7.00
2018-03-16T11:00:23.369Z,6.80
2018-03-16T11:02:51.689Z,6.90
2018-03-16T11:05:25.649Z,6.90
2018-03-16T11:08:08.612Z,6.90
2018-03-16T11:10:36.916Z,6.90
2018-03-16T11:13:05.237Z,6.90
2018-03-16T11:15:33.555Z,7.00
2018-03-16T11:18:01.879Z,7.00
2018-03-16T11:20:32.112Z,7.00
2018-03-16T11:22:59.669Z,7.00
2018-03-16T11:25:27.969Z,6.90
2018-03-16T11:27:56.623Z,6.90
2018-03-16T11:30:25.757Z,7.00
2018-03-16T11:32:53.309Z,7.00
2018-03-16T11:35:21.605Z,7.10
2018-03-16T11:37:49.922Z,7.00
2018-03-16T11:40:18.221Z,7.00
2018-03-16T11:42:46.560Z,7.00
2018-03-16T11:45:14.861Z,7.00
2018-03-16T11:47:43.160Z,7.10
2018-03-16T11:50:11.470Z,7.10
2018-03-16T11:52:39.764Z,7.10
2018-03-16T11:55:08.088Z,7.20
2018-03-16T11:57:36.409Z,7.30
2018-03-16T12:00:04.701Z,7.30
2018-03-16T12:02:33.008Z,7.30
2018-03-16T12:05:01.316Z,7.20
2018-03-16T12:07:29.636Z,7.20
2018-03-16T12:09:57.932Z,7.30
2018-03-16T12:12:26.245Z,7.40
2018-03-16T12:14:55.514Z,7.40
2018-03-16T12:17:25.174Z,7.40
2018-03-16T12:19:53.583Z,7.40
2018-03-16T12:22:21.913Z,7.40
2018-03-16T12:24:50.210Z,7.50
2018-03-16T12:27:18.512Z,7.50
2018-03-16T12:29:46.825Z,7.50
2018-03-16T12:32:15.121Z,7.50
2018-03-16T12:34:46.489Z,7.40
2018-03-16T12:37:14.809Z,7.40
2018-03-16T12:39:43.117Z,7.50
2018-03-16T12:42:11.433Z,7.40
2018-03-16T12:44:39.725Z,7.40
2018-03-16T12:47:08.033Z,7.40
2018-03-16T12:49:36.337Z,7.40
2018-03-16T12:52:04.669Z,7.30
2018-03-16T12:54:32.965Z,7.30
2018-03-16T12:57:01.297Z,7.40
2018-03-16T12:59:29.594Z,7.30
2018-03-16T13:01:57.920Z,7.20
2018-03-16T13:04:26.236Z,7.30
2018-03-16T13:06:53.764Z,7.30
2018-03-16T13:09:22.089Z,7.40
2018-03-16T13:11:50.376Z,7.30
2018-03-16T13:14:18.697Z,7.30
2018-03-16T13:16:46.992Z,7.30
2018-03-16T13:19:15.355Z,7.20
2018-03-16T13:21:43.636Z,7.30
2018-03-16T13:24:11.973Z,7.30
2018-03-16T13:26:40.269Z,7.20
2018-03-16T13:29:08.581Z,7.10
2018-03-16T13:31:36.892Z,7.10
2018-03-16T13:34:05.202Z,7.10
2018-03-16T13:36:33.525Z,7.20
2018-03-16T13:39:01.826Z,7.30
2018-03-16T13:41:30.165Z,7.50
2018-03-16T13:43:58.488Z,7.30
2018-03-16T13:46:26.799Z,7.30
2018-03-16T13:48:55.099Z,7.30
2018-03-16T13:51:23.415Z,7.30
2018-03-16T13:53:51.731Z,7.30
2018-03-16T13:56:20.052Z,7.20
2018-03-16T13:58:48.364Z,7.10
2018-03-16T14:01:16.676Z,7.00
2018-03-16T14:03:44.984Z,7.00
2018-03-16T14:06:16.993Z,7.00
2018-03-16T14:08:45.289Z,6.90
2018-03-16T14:11:13.596Z,7.00
2018-03-16T14:13:41.901Z,6.90
2018-03-16T14:16:10.223Z,6.80
2018-03-16T14:18:38.554Z,6.70
2018-03-16T14:21:06.858Z,6.70
2018-03-16T14:23:35.181Z,6.60
2018-03-16T14:26:03.514Z,6.50
2018-03-16T14:28:31.808Z,6.60
2018-03-16T14:31:00.120Z,6.50
2018-03-16T14:33:28.421Z,6.50
2018-03-16T14:35:56.741Z,6.50
2018-03-16T14:38:25.064Z,6.50
2018-03-16T14:40:53.380Z,6.50
2018-03-16T14:43:21.694Z,6.40
2018-03-16T14:45:49.989Z,6.30
2018-03-16T14:48:18.328Z,6.20
2018-03-16T14:50:46.640Z,6.10
2018-03-16T14:53:14.978Z,6.20
2018-03-16T14:55:43.282Z,6.20
2018-03-16T14:58:11.581Z,6.10
2018-03-16T15:00:39.910Z,6.20
2018-03-16T15:03:08.201Z,6.20
2018-03-16T15:05:36.514Z,6.10
2018-03-16T15:08:04.818Z,6.10
2018-03-16T15:10:33.149Z,6.10
2018-03-16T15:13:01.449Z,6.10
2018-03-16T15:15:29.789Z,6.00
2018-03-16T15:17:58.097Z,5.90
2018-03-16T15:20:26.428Z,5.90
2018-03-16T15:22:54.744Z,5.90
2018-03-16T15:25:23.090Z,5.90
2018-03-16T15:27:51.352Z,5.90
2018-03-16T15:30:19.624Z,5.90
2018-03-16T15:32:47.910Z,5.90
2018-03-16T15:35:19.654Z,5.90
2018-03-16T15:37:47.926Z,5.90
2018-03-16T15:40:17.623Z,5.80
2018-03-16T15:42:47.058Z,5.80
2018-03-16T15:45:16.118Z,5.70
2018-03-16T15:47:45.284Z,5.60
2018-03-16T15:50:13.588Z,5.50
2018-03-16T15:52:41.887Z,5.60
2018-03-16T15:55:10.147Z,5.60
2018-03-16T15:57:38.430Z,5.60
2018-03-16T16:00:06.719Z,5.60
2018-03-16T16:02:34.991Z,5.50
2018-03-16T16:05:03.291Z,5.40
2018-03-16T16:07:31.550Z,5.30
2018-03-16T16:09:59.834Z,5.30
2018-03-16T16:12:28.106Z,5.40
2018-03-16T16:14:56.407Z,5.30
2018-03-16T16:17:24.662Z,5.20
2018-03-16T16:19:52.958Z,5.20
2018-03-16T16:22:21.284Z,5.10
2018-03-16T16:24:49.532Z,5.20
2018-03-16T16:27:17.836Z,5.10
2018-03-16T16:29:47.202Z,5.10
2018-03-16T16:32:14.727Z,5.10
2018-03-16T16:34:43.988Z,5.20
2018-03-16T16:37:12.280Z,5.20
2018-03-16T16:39:40.543Z,5.20
2018-03-16T16:42:08.832Z,5.20
2018-03-16T16:44:37.102Z,5.10
2018-03-16T16:47:16.447Z,5.00
2018-03-16T16:49:44.752Z,4.90
2018-03-16T16:52:13.005Z,4.90
2018-03-16T16:54:41.256Z,4.90
2018-03-16T16:57:09.547Z,4.90
2018-03-16T16:59:37.807Z,4.90
2018-03-16T17:02:06.104Z,4.90
2018-03-16T17:04:34.387Z,5.00
2018-03-16T17:07:02.705Z,4.90
2018-03-16T17:09:30.960Z,4.90
2018-03-16T17:11:59.219Z,4.80
2018-03-16T17:14:27.515Z,4.70
2018-03-16T17:16:55.792Z,4.70
2018-03-16T17:19:24.031Z,4.70
2018-03-16T17:21:52.323Z,4.70
2018-03-16T17:24:20.576Z,4.60
2018-03-16T17:26:48.087Z,4.60
2018-03-16T17:29:17.880Z,4.70
2018-03-16T17:31:47.501Z,4.70
2018-03-16T17:34:17.143Z,4.60
2018-03-16T17:36:45.871Z,4.50
2018-03-16T17:39:14.170Z,4.50
2018-03-16T17:41:42.432Z,4.40
2018-03-16T17:44:10.719Z,4.50
2018-03-16T17:46:38.986Z,4.40
2018-03-16T17:49:07.275Z,4.40
2018-03-16T17:51:38.656Z,4.30
2018-03-16T17:54:06.191Z,4.30
2018-03-16T17:56:34.460Z,4.20
2018-03-16T17:59:02.768Z,4.20
2018-03-16T18:01:31.041Z,4.20
2018-03-16T18:03:59.327Z,4.10
2018-03-16T18:06:27.607Z,4.10
2018-03-16T18:08:55.907Z,4.00
2018-03-16T18:11:24.159Z,3.90
2018-03-16T18:13:52.447Z,3.90
2018-03-16T18:16:20.718Z,4.00
2018-03-16T18:18:49.004Z,3.90
2018-03-16T18:21:22.366Z,3.90
2018-03-16T18:23:50.625Z,4.00
2018-03-16T18:26:18.918Z,4.00
2018-03-16T18:28:47.174Z,4.00
2018-03-16T18:31:15.879Z,4.10
2018-03-16T18:33:44.177Z,4.10
2018-03-16T18:36:12.437Z,4.10
2018-03-16T18:38:40.711Z,4.20
2018-03-16T18:41:08.999Z,4.00
2018-03-16T18:43:37.266Z,4.10
2018-03-16T18:46:05.550Z,4.00
2018-03-16T18:48:33.815Z,3.90
2018-03-16T18:51:02.092Z,3.90
2018-03-16T18:53:30.371Z,3.80
2018-03-16T18:55:58.632Z,3.80
2018-03-16T18:58:26.906Z,3.70
2018-03-16T19:00:55.158Z,3.70
2018-03-16T19:03:23.435Z,3.60
2018-03-16T19:05:51.715Z,3.60
2018-03-16T19:08:19.972Z,3.60
2018-03-16T19:10:48.247Z,3.60
2018-03-16T19:13:17.135Z,3.60
2018-03-16T19:15:46.323Z,3.70
2018-03-16T19:18:16.087Z,3.70
2018-03-16T19:20:45.158Z,3.70
2018-03-16T19:23:13.431Z,3.60
2018-03-16T19:25:41.728Z,3.60
2018-03-16T19:28:09.986Z,3.60
2018-03-16T19:30:38.254Z,3.60
2018-03-16T19:33:06.547Z,3.50
2018-03-16T19:35:34.799Z,3.50
2018-03-16T19:38:03.070Z,3.50
2018-03-16T19:40:31.327Z,3.30
2018-03-16T19:42:59.590Z,3.30
2018-03-16T19:45:27.869Z,3.40
2018-03-16T19:47:55.368Z,3.40
2018-03-16T19:50:23.659Z,3.40
2018-03-16T19:52:51.923Z,3.40
2018-03-16T19:55:20.206Z,3.40
2018-03-16T19:57:48.487Z,3.40
2018-03-16T20:00:17.039Z,3.40
2018-03-16T20:02:46.106Z,3.20
2018-03-16T20:05:15.199Z,3.20
2018-03-16T20:07:43.474Z,3.30
2018-03-16T20:10:11.727Z,3.20
2018-03-16T20:12:40.007Z,3.20
2018-03-16T20:15:08.293Z,3.10
2018-03-16T20:17:36.548Z,3.10
2018-03-16T20:20:04.798Z,3.10
2018-03-16T20:22:33.067Z,3.10
2018-03-16T20:25:01.323Z,3.10
2018-03-16T20:27:29.606Z,3.00
2018-03-16T20:29:57.869Z,3.00
2018-03-16T20:32:25.388Z,3.00
2018-03-16T20:34:53.642Z,3.00
2018-03-16T20:37:21.901Z,3.00
2018-03-16T20:39:50.175Z,2.90
2018-03-16T20:42:18.483Z,2.90
2018-03-16T20:44:46.723Z,2.90
2018-03-16T20:47:15.647Z,3.00
2018-03-16T20:49:43.943Z,3.00
2018-03-16T20:52:12.203Z,3.00
2018-03-16T20:54:40.490Z,3.00
2018-03-16T20:57:08.747Z,3.00
2018-03-16T20:59:37.048Z,2.90
2018-03-16T21:02:04.555Z,2.90
2018-03-16T21:04:32.838Z,2.90
2018-03-16T21:07:01.116Z,2.90
2018-03-16T21:09:29.444Z,2.90
2018-03-16T21:11:57.691Z,2.90
2018-03-16T21:14:25.942Z,3.00
2018-03-16T21:16:54.230Z,2.90
2018-03-16T21:19:22.486Z,2.90
2018-03-16T21:21:50.791Z,2.80
2018-03-16T21:24:18.281Z,2.80
2018-03-16T21:26:46.876Z,2.80
2018-03-16T21:29:15.891Z,2.80
2018-03-16T21:31:44.158Z,2.90
2018-03-16T21:34:12.455Z,2.80
2018-03-16T21:36:40.724Z,2.80
2018-03-16T21:39:09.010Z,2.70
2018-03-16T21:41:37.406Z,2.70
2018-03-16T21:44:05.668Z,2.70
2018-03-16T21:46:33.927Z,2.80
2018-03-16T21:49:02.206Z,2.80
2018-03-16T21:51:30.499Z,2.80
2018-03-16T21:53:58.768Z,2.80
2018-03-16T21:56:27.056Z,2.80
2018-03-16T21:58:55.338Z,2.80
2018-03-16T22:01:23.612Z,2.70
2018-03-16T22:03:51.903Z,2.70
2018-03-16T22:06:20.159Z,2.60
2018-03-16T22:08:48.480Z,2.50
2018-03-16T22:11:17.000Z,2.60
2018-03-16T22:13:46.195Z,2.70
2018-03-16T22:16:15.159Z,2.80
2018-03-16T22:18:43.411Z,2.80
2018-03-16T22:21:11.700Z,2.70
2018-03-16T22:23:39.967Z,2.70
2018-03-16T22:26:08.267Z,2.70
2018-03-16T22:28:36.526Z,2.60
2018-03-16T22:31:04.803Z,2.60
2018-03-16T22:33:33.062Z,2.70
2018-03-16T22:36:01.356Z,2.70
2018-03-16T22:38:29.626Z,2.60
2018-03-16T22:40:57.924Z,2.60
2018-03-16T22:43:26.182Z,2.60
2018-03-16T22:45:54.471Z,2.60
2018-03-16T22:48:22.731Z,2.60
2018-03-16T22:50:51.087Z,2.60
2018-03-16T22:53:19.347Z,2.60
2018-03-16T22:55:47.626Z,2.60
2018-03-16T22:58:17.171Z,2.50
2018-03-16T23:00:46.399Z,2.30
2018-03-16T23:03:14.699Z,2.30
2018-03-16T23:05:42.967Z,2.30
2018-03-16T23:08:11.243Z,2.20
2018-03-16T23:10:39.542Z,2.30
2018-03-16T23:13:07.805Z,2.30
2018-03-16T23:15:36.073Z,2.30
2018-03-16T23:18:04.378Z,2.30
2018-03-16T23:20:32.643Z,2.30
2018-03-16T23:23:00.926Z,2.40
2018-03-16T23:25:29.187Z,2.40
2018-03-16T23:27:57.488Z,2.10
2018-03-16T23:30:25.755Z,2.10
2018-03-16T23:32:54.015Z,2.10
2018-03-16T23:35:22.311Z,2.10
2018-03-16T23:37:50.574Z,2.20
2018-03-16T23:40:18.868Z,2.20
2018-03-16T23:42:47.127Z,2.20
2018-03-16T23:45:16.274Z,2.20
2018-03-16T23:47:45.238Z,2.20
2018-03-16T23:50:13.527Z,2.10
2018-03-16T23:52:41.795Z,2.00
2018-03-16T23:55:12.575Z,2.00
2018-03-16T23:57:40.834Z,1.90
